AZU6036 SBSP-SBPA
Flight info
| Callsign | AZU6036 |
|---|---|
| Flight time | 1h 25m |
| Altitude | 34000 |
| Route | UBSOD UZ38 VUKMO |
| Aircraft | A20N/M-SDE2E3FGHIRWXY/LB1 |
Departure
| Time | 2026-05-06 13:20 |
|---|---|
| Airport | Congonhas–Deputado Freitas Nobre Airport (SBSP) |
Arrival
| Time | 2026-05-06 14:45 |
|---|---|
| Airport | Porto Alegre-Salgado Filho International Airport (SBPA) |
| Time | Latitude | Longitude | Altitude | Speed | Heading |
|---|---|---|---|---|---|
| 2026-05-06 12:51 | -23.62882 | -46.65709 | 2601 ft | 0 kts | 327° |
| 2026-05-06 13:13 | -23.62886 | -46.65706 | 2601 ft | 2 kts | 327° |
| 2026-05-06 13:13 | -23.62899 | -46.65697 | 2601 ft | 2 kts | 335° |
| 2026-05-06 13:13 | -23.62915 | -46.65695 | 2601 ft | 2 kts | 46° |
| 2026-05-06 13:14 | -23.62917 | -46.65697 | 2601 ft | 0 kts | 53° |
| 2026-05-06 13:15 | -23.62910 | -46.65684 | 2601 ft | 4 kts | 64° |
| 2026-05-06 13:15 | -23.62896 | -46.65647 | 2601 ft | 6 kts | 66° |
| 2026-05-06 13:16 | -23.62867 | -46.65628 | 2602 ft | 5 kts | 0° |
| 2026-05-06 13:16 | -23.62835 | -46.65641 | 2603 ft | 6 kts | 334° |
| 2026-05-06 13:16 | -23.62789 | -46.65670 | 2603 ft | 8 kts | 328° |
| 2026-05-06 13:16 | -23.62741 | -46.65703 | 2602 ft | 9 kts | 329° |
| 2026-05-06 13:17 | -23.62682 | -46.65744 | 2602 ft | 11 kts | 327° |
| 2026-05-06 13:17 | -23.62618 | -46.65789 | 2602 ft | 11 kts | 327° |
| 2026-05-06 13:17 | -23.62553 | -46.65834 | 2602 ft | 12 kts | 328° |
| 2026-05-06 13:17 | -23.62476 | -46.65887 | 2601 ft | 14 kts | 327° |
| 2026-05-06 13:18 | -23.62386 | -46.65949 | 2601 ft | 17 kts | 327° |
| 2026-05-06 13:18 | -23.62282 | -46.66021 | 2600 ft | 19 kts | 329° |
| 2026-05-06 13:18 | -23.62165 | -46.66094 | 2599 ft | 17 kts | 327° |
| 2026-05-06 13:18 | -23.62100 | -46.66136 | 2590 ft | 9 kts | 341° |
| 2026-05-06 13:19 | -23.62042 | -46.66109 | 2586 ft | 8 kts | 56° |
| 2026-05-06 13:19 | -23.62057 | -46.66071 | 2592 ft | 8 kts | 142° |
| 2026-05-06 13:19 | -23.62295 | -46.65903 | 2600 ft | 81 kts | 148° |
| 2026-05-06 13:19 | -23.62968 | -46.65437 | 2613 ft | 145 kts | 147° |
| 2026-05-06 13:20 | -23.63856 | -46.64800 | 3179 ft | 154 kts | 144° |
| 2026-05-06 13:20 | -23.64786 | -46.64142 | 3653 ft | 169 kts | 149° |
| 2026-05-06 13:20 | -23.66005 | -46.63878 | 3933 ft | 194 kts | 184° |
| 2026-05-06 13:20 | -23.67426 | -46.64045 | 4203 ft | 219 kts | 184° |
| 2026-05-06 13:21 | -23.69022 | -46.64230 | 4554 ft | 243 kts | 185° |
| 2026-05-06 13:21 | -23.70723 | -46.64750 | 4888 ft | 269 kts | 209° |
| 2026-05-06 13:21 | -23.72232 | -46.66033 | 5514 ft | 279 kts | 219° |
| 2026-05-06 13:21 | -23.73739 | -46.67395 | 6281 ft | 283 kts | 218° |
| 2026-05-06 13:22 | -23.75271 | -46.68762 | 7047 ft | 286 kts | 218° |
| 2026-05-06 13:22 | -23.76824 | -46.70141 | 7791 ft | 289 kts | 218° |
| 2026-05-06 13:22 | -23.78397 | -46.71535 | 8526 ft | 293 kts | 218° |
| 2026-05-06 13:22 | -23.79986 | -46.72968 | 9218 ft | 297 kts | 218° |
| 2026-05-06 13:23 | -23.81592 | -46.74405 | 9979 ft | 300 kts | 219° |
| 2026-05-06 13:23 | -23.83209 | -46.75846 | 10457 ft | 313 kts | 218° |
| 2026-05-06 13:23 | -23.84952 | -46.77394 | 10673 ft | 331 kts | 218° |
| 2026-05-06 13:23 | -23.86761 | -46.79003 | 11205 ft | 338 kts | 218° |
| 2026-05-06 13:24 | -23.88576 | -46.80622 | 11860 ft | 341 kts | 218° |
| 2026-05-06 13:24 | -23.90420 | -46.82270 | 12558 ft | 344 kts | 218° |
| 2026-05-06 13:24 | -23.92278 | -46.83934 | 13239 ft | 346 kts | 218° |
| 2026-05-06 13:24 | -23.94147 | -46.85611 | 13954 ft | 349 kts | 218° |
| 2026-05-06 13:25 | -23.96032 | -46.87303 | 14600 ft | 352 kts | 218° |
| 2026-05-06 13:25 | -23.97928 | -46.89004 | 15279 ft | 354 kts | 218° |
| 2026-05-06 13:25 | -23.99836 | -46.90715 | 15979 ft | 356 kts | 218° |
| 2026-05-06 13:25 | -24.01756 | -46.92439 | 16717 ft | 358 kts | 218° |
| 2026-05-06 13:26 | -24.03690 | -46.94176 | 17482 ft | 360 kts | 218° |
| 2026-05-06 13:26 | -24.05635 | -46.95923 | 18275 ft | 363 kts | 218° |
| 2026-05-06 13:26 | -24.07595 | -46.97685 | 19023 ft | 366 kts | 218° |
| 2026-05-06 13:26 | -24.09566 | -46.99457 | 19767 ft | 368 kts | 218° |
| 2026-05-06 13:27 | -24.11555 | -47.01243 | 20520 ft | 371 kts | 218° |
| 2026-05-06 13:27 | -24.13560 | -47.03043 | 21272 ft | 374 kts | 219° |
| 2026-05-06 13:27 | -24.15579 | -47.04856 | 21989 ft | 377 kts | 219° |
| 2026-05-06 13:27 | -24.17616 | -47.06687 | 22719 ft | 381 kts | 219° |
| 2026-05-06 13:28 | -24.19671 | -47.08536 | 23410 ft | 384 kts | 219° |
| 2026-05-06 13:28 | -24.21040 | -47.09770 | 23849 ft | 387 kts | 220° |
| 2026-05-06 13:28 | -24.23118 | -47.11646 | 24097 ft | 387 kts | 219° |
| 2026-05-06 13:28 | -24.25193 | -47.13519 | 24185 ft | 386 kts | 219° |
| 2026-05-06 13:29 | -24.27364 | -47.15241 | 24204 ft | 385 kts | 213° |
| 2026-05-06 13:29 | -24.29630 | -47.16813 | 24206 ft | 385 kts | 213° |
| 2026-05-06 13:29 | -24.31887 | -47.18378 | 24204 ft | 385 kts | 213° |
| 2026-05-06 13:29 | -24.34152 | -47.19947 | 24201 ft | 384 kts | 213° |
| 2026-05-06 13:30 | -24.36402 | -47.21507 | 24200 ft | 383 kts | 213° |
| 2026-05-06 13:30 | -24.38653 | -47.23072 | 24207 ft | 383 kts | 213° |
| 2026-05-06 13:30 | -24.40903 | -47.24640 | 24205 ft | 383 kts | 213° |
| 2026-05-06 13:30 | -24.43149 | -47.26206 | 24207 ft | 383 kts | 213° |
| 2026-05-06 13:31 | -24.45399 | -47.27775 | 24207 ft | 383 kts | 213° |
| 2026-05-06 13:31 | -24.47647 | -47.29345 | 24204 ft | 383 kts | 213° |
| 2026-05-06 13:31 | -24.49894 | -47.30911 | 24205 ft | 383 kts | 213° |
| 2026-05-06 13:31 | -24.52145 | -47.32478 | 24204 ft | 383 kts | 213° |
| 2026-05-06 13:32 | -24.54402 | -47.34048 | 24201 ft | 383 kts | 213° |
| 2026-05-06 13:32 | -24.56653 | -47.35612 | 24204 ft | 383 kts | 213° |
| 2026-05-06 13:32 | -24.58907 | -47.37180 | 24204 ft | 383 kts | 213° |
| 2026-05-06 13:32 | -24.61159 | -47.38750 | 24201 ft | 383 kts | 213° |
| 2026-05-06 13:33 | -24.63408 | -47.40319 | 24202 ft | 383 kts | 213° |
| 2026-05-06 13:33 | -24.65661 | -47.41897 | 24376 ft | 386 kts | 213° |
| 2026-05-06 13:33 | -24.67932 | -47.43488 | 25041 ft | 387 kts | 213° |
| 2026-05-06 13:33 | -24.70205 | -47.45076 | 25724 ft | 388 kts | 212° |
| 2026-05-06 13:34 | -24.72482 | -47.46666 | 26402 ft | 388 kts | 212° |
| 2026-05-06 13:34 | -24.74728 | -47.48239 | 27066 ft | 388 kts | 212° |
| 2026-05-06 13:34 | -24.77006 | -47.49835 | 27716 ft | 388 kts | 212° |
| 2026-05-06 13:34 | -24.79281 | -47.51426 | 28361 ft | 388 kts | 212° |
| 2026-05-06 13:35 | -24.81561 | -47.53025 | 29011 ft | 389 kts | 212° |
| 2026-05-06 13:35 | -24.83845 | -47.54624 | 29652 ft | 389 kts | 212° |
| 2026-05-06 13:35 | -24.86133 | -47.56227 | 30276 ft | 390 kts | 212° |
| 2026-05-06 13:35 | -24.88424 | -47.57831 | 30775 ft | 391 kts | 212° |
| 2026-05-06 13:36 | -24.90723 | -47.59443 | 31234 ft | 393 kts | 212° |
| 2026-05-06 13:36 | -24.93031 | -47.61067 | 31648 ft | 395 kts | 212° |
| 2026-05-06 13:36 | -24.95356 | -47.62701 | 32067 ft | 397 kts | 212° |
| 2026-05-06 13:36 | -24.97678 | -47.64334 | 32669 ft | 395 kts | 212° |
| 2026-05-06 13:37 | -24.99986 | -47.65955 | 33278 ft | 393 kts | 212° |
| 2026-05-06 13:37 | -25.02283 | -47.67571 | 33879 ft | 391 kts | 213° |
| 2026-05-06 13:37 | -25.04568 | -47.69177 | 34441 ft | 389 kts | 213° |
| 2026-05-06 13:37 | -25.06840 | -47.70775 | 35006 ft | 385 kts | 213° |
| 2026-05-06 13:38 | -25.09082 | -47.72358 | 35603 ft | 380 kts | 213° |
| 2026-05-06 13:38 | -25.11293 | -47.73918 | 36220 ft | 374 kts | 213° |
| 2026-05-06 13:38 | -25.13468 | -47.75454 | 36846 ft | 369 kts | 213° |
| 2026-05-06 13:38 | -25.15613 | -47.76966 | 37452 ft | 363 kts | 214° |
| 2026-05-06 13:39 | -25.17726 | -47.78455 | 38013 ft | 359 kts | 213° |
| 2026-05-06 13:39 | -25.19816 | -47.79925 | 38172 ft | 354 kts | 214° |
| 2026-05-06 13:39 | -25.21878 | -47.81380 | 38197 ft | 350 kts | 214° |
| 2026-05-06 13:40 | -25.25939 | -47.84258 | 38202 ft | 348 kts | 214° |
| 2026-05-06 13:40 | -25.30010 | -47.87140 | 38201 ft | 348 kts | 214° |
| 2026-05-06 13:41 | -25.34087 | -47.90024 | 38201 ft | 348 kts | 214° |
| 2026-05-06 13:41 | -25.38162 | -47.92907 | 38201 ft | 348 kts | 214° |
| 2026-05-06 13:42 | -25.42232 | -47.95795 | 38209 ft | 348 kts | 214° |
| 2026-05-06 13:42 | -25.46302 | -47.98685 | 38206 ft | 348 kts | 214° |
| 2026-05-06 13:43 | -25.50371 | -48.01580 | 38209 ft | 348 kts | 214° |
| 2026-05-06 13:43 | -25.54448 | -48.04470 | 38207 ft | 348 kts | 214° |
| 2026-05-06 13:44 | -25.58518 | -48.07365 | 38208 ft | 348 kts | 214° |
| 2026-05-06 13:44 | -25.62589 | -48.10264 | 38207 ft | 348 kts | 214° |
| 2026-05-06 13:45 | -25.66656 | -48.13168 | 38204 ft | 348 kts | 214° |
| 2026-05-06 13:45 | -25.72765 | -48.17514 | 38204 ft | 348 kts | 214° |
| 2026-05-06 13:46 | -25.76840 | -48.20416 | 38215 ft | 348 kts | 214° |
| 2026-05-06 13:46 | -25.80883 | -48.23297 | 38210 ft | 348 kts | 214° |
| 2026-05-06 13:47 | -25.84946 | -48.26200 | 38212 ft | 347 kts | 215° |
| 2026-05-06 13:47 | -25.89008 | -48.29104 | 38210 ft | 347 kts | 214° |
| 2026-05-06 13:48 | -25.93075 | -48.32001 | 38208 ft | 347 kts | 214° |
| 2026-05-06 13:48 | -25.97136 | -48.34902 | 38207 ft | 347 kts | 215° |
| 2026-05-06 13:49 | -26.01193 | -48.37812 | 38203 ft | 347 kts | 215° |
| 2026-05-06 13:49 | -26.05253 | -48.40725 | 38216 ft | 347 kts | 215° |
| 2026-05-06 13:50 | -26.09308 | -48.43634 | 38211 ft | 347 kts | 215° |
| 2026-05-06 13:50 | -26.13366 | -48.46543 | 38201 ft | 347 kts | 215° |
| 2026-05-06 13:51 | -26.17423 | -48.49455 | 38200 ft | 347 kts | 215° |
| 2026-05-06 13:51 | -26.21484 | -48.52375 | 38200 ft | 347 kts | 215° |
| 2026-05-06 13:52 | -26.25539 | -48.55293 | 38201 ft | 347 kts | 215° |
| 2026-05-06 13:52 | -26.29599 | -48.58222 | 38204 ft | 347 kts | 215° |
| 2026-05-06 13:53 | -26.33655 | -48.61152 | 38204 ft | 347 kts | 215° |
| 2026-05-06 13:53 | -26.37715 | -48.64083 | 38220 ft | 347 kts | 215° |
| 2026-05-06 13:54 | -26.41767 | -48.67011 | 38220 ft | 347 kts | 215° |
| 2026-05-06 13:54 | -26.45791 | -48.69914 | 38218 ft | 347 kts | 215° |
| 2026-05-06 13:55 | -26.49852 | -48.72870 | 38213 ft | 346 kts | 216° |
| 2026-05-06 13:55 | -26.53839 | -48.75815 | 38210 ft | 346 kts | 216° |
| 2026-05-06 13:56 | -26.57878 | -48.78802 | 38217 ft | 346 kts | 216° |
| 2026-05-06 13:56 | -26.61868 | -48.81752 | 38209 ft | 346 kts | 216° |
| 2026-05-06 13:57 | -26.65878 | -48.84721 | 38216 ft | 346 kts | 216° |
| 2026-05-06 13:57 | -26.69900 | -48.87679 | 38216 ft | 346 kts | 216° |
| 2026-05-06 13:58 | -26.73933 | -48.90612 | 38213 ft | 346 kts | 216° |
| 2026-05-06 13:58 | -26.77968 | -48.93547 | 38213 ft | 346 kts | 216° |
| 2026-05-06 13:59 | -26.81995 | -48.96494 | 38212 ft | 346 kts | 216° |
| 2026-05-06 13:59 | -26.86011 | -48.99444 | 38209 ft | 345 kts | 216° |
| 2026-05-06 14:00 | -26.90034 | -49.02389 | 38209 ft | 345 kts | 216° |
| 2026-05-06 14:00 | -26.94054 | -49.05330 | 38209 ft | 345 kts | 216° |
| 2026-05-06 14:01 | -26.98075 | -49.08281 | 38201 ft | 345 kts | 216° |
| 2026-05-06 14:01 | -27.02089 | -49.11231 | 38192 ft | 345 kts | 216° |
| 2026-05-06 14:02 | -27.06121 | -49.14193 | 38193 ft | 347 kts | 216° |
| 2026-05-06 14:02 | -27.10154 | -49.17161 | 38192 ft | 347 kts | 216° |
| 2026-05-06 14:03 | -27.14189 | -49.20140 | 38201 ft | 347 kts | 216° |
| 2026-05-06 14:03 | -27.18208 | -49.23097 | 38205 ft | 348 kts | 216° |
| 2026-05-06 14:04 | -27.22247 | -49.26071 | 38216 ft | 347 kts | 216° |
| 2026-05-06 14:04 | -27.26289 | -49.29054 | 38220 ft | 348 kts | 216° |
| 2026-05-06 14:05 | -27.30335 | -49.32043 | 38241 ft | 348 kts | 216° |
| 2026-05-06 14:05 | -27.34376 | -49.35028 | 38244 ft | 347 kts | 216° |
| 2026-05-06 14:06 | -27.38408 | -49.38011 | 38238 ft | 347 kts | 216° |
| 2026-05-06 14:06 | -27.42430 | -49.41000 | 38237 ft | 346 kts | 216° |
| 2026-05-06 14:07 | -27.46451 | -49.43986 | 38240 ft | 346 kts | 216° |
| 2026-05-06 14:07 | -27.50471 | -49.46976 | 38240 ft | 347 kts | 217° |
| 2026-05-06 14:08 | -27.54494 | -49.49966 | 38241 ft | 347 kts | 216° |
| 2026-05-06 14:08 | -27.58529 | -49.52954 | 38254 ft | 347 kts | 217° |
| 2026-05-06 14:09 | -27.62561 | -49.55934 | 38250 ft | 346 kts | 217° |
| 2026-05-06 14:09 | -27.66590 | -49.58920 | 38250 ft | 346 kts | 217° |
| 2026-05-06 14:10 | -27.70610 | -49.61908 | 38241 ft | 346 kts | 217° |
| 2026-05-06 14:10 | -27.74631 | -49.64896 | 38241 ft | 346 kts | 216° |
| 2026-05-06 14:11 | -27.78692 | -49.67833 | 38248 ft | 347 kts | 216° |
| 2026-05-06 14:11 | -27.82780 | -49.70728 | 38247 ft | 347 kts | 216° |
| 2026-05-06 14:12 | -27.86871 | -49.73632 | 38245 ft | 347 kts | 216° |
| 2026-05-06 14:12 | -27.90956 | -49.76536 | 38264 ft | 347 kts | 216° |
| 2026-05-06 14:13 | -27.95008 | -49.79425 | 38257 ft | 346 kts | 216° |
| 2026-05-06 14:13 | -27.99071 | -49.82332 | 38255 ft | 346 kts | 216° |
| 2026-05-06 14:14 | -28.03140 | -49.85250 | 38249 ft | 347 kts | 216° |
| 2026-05-06 14:14 | -28.07214 | -49.88176 | 38237 ft | 347 kts | 216° |
| 2026-05-06 14:15 | -28.11294 | -49.91105 | 38246 ft | 347 kts | 216° |
| 2026-05-06 14:15 | -28.15374 | -49.94032 | 38245 ft | 347 kts | 216° |
| 2026-05-06 14:16 | -28.19453 | -49.96963 | 38250 ft | 347 kts | 216° |
| 2026-05-06 14:16 | -28.23532 | -49.99892 | 38234 ft | 347 kts | 217° |
| 2026-05-06 14:17 | -28.27609 | -50.02829 | 38229 ft | 347 kts | 217° |
| 2026-05-06 14:17 | -28.31689 | -50.05770 | 38229 ft | 347 kts | 217° |
| 2026-05-06 14:18 | -28.35078 | -50.08213 | 38229 ft | 348 kts | 217° |
| 2026-05-06 14:18 | -28.39166 | -50.11162 | 38236 ft | 348 kts | 217° |
| 2026-05-06 14:19 | -28.43245 | -50.14113 | 38230 ft | 348 kts | 217° |
| 2026-05-06 14:19 | -28.47325 | -50.17060 | 38224 ft | 347 kts | 216° |
| 2026-05-06 14:20 | -28.51392 | -50.20004 | 38226 ft | 347 kts | 217° |
| 2026-05-06 14:20 | -28.55424 | -50.22930 | 38221 ft | 348 kts | 217° |
| 2026-05-06 14:21 | -28.57475 | -50.24417 | 37458 ft | 354 kts | 217° |
| 2026-05-06 14:21 | -28.59542 | -50.25916 | 37064 ft | 347 kts | 217° |
| 2026-05-06 14:21 | -28.61557 | -50.27372 | 36744 ft | 339 kts | 217° |
| 2026-05-06 14:21 | -28.63528 | -50.28801 | 36352 ft | 334 kts | 217° |
| 2026-05-06 14:22 | -28.65470 | -50.30211 | 35951 ft | 329 kts | 217° |
| 2026-05-06 14:22 | -28.67391 | -50.31610 | 35544 ft | 328 kts | 217° |
| 2026-05-06 14:22 | -28.69304 | -50.33008 | 35131 ft | 327 kts | 217° |
| 2026-05-06 14:22 | -28.71216 | -50.34406 | 34629 ft | 326 kts | 217° |
| 2026-05-06 14:23 | -28.73118 | -50.35813 | 34137 ft | 325 kts | 219° |
| 2026-05-06 14:23 | -28.74833 | -50.37191 | 33648 ft | 323 kts | 220° |
| 2026-05-06 14:23 | -28.76627 | -50.38718 | 33179 ft | 321 kts | 221° |
| 2026-05-06 14:23 | -28.78396 | -50.40259 | 32698 ft | 319 kts | 221° |
| 2026-05-06 14:24 | -28.80158 | -50.41797 | 32239 ft | 318 kts | 221° |
| 2026-05-06 14:24 | -28.81904 | -50.43313 | 31773 ft | 318 kts | 221° |
| 2026-05-06 14:24 | -28.83665 | -50.44835 | 31317 ft | 318 kts | 220° |
| 2026-05-06 14:24 | -28.85412 | -50.46339 | 30870 ft | 317 kts | 220° |
| 2026-05-06 14:25 | -28.87175 | -50.47851 | 30426 ft | 317 kts | 220° |
| 2026-05-06 14:25 | -28.88937 | -50.49355 | 29944 ft | 316 kts | 220° |
| 2026-05-06 14:25 | -28.90691 | -50.50848 | 29505 ft | 315 kts | 220° |
| 2026-05-06 14:25 | -28.92445 | -50.52342 | 29074 ft | 314 kts | 220° |
| 2026-05-06 14:26 | -28.94194 | -50.53835 | 28658 ft | 313 kts | 220° |
| 2026-05-06 14:26 | -28.95930 | -50.55317 | 28260 ft | 312 kts | 220° |
| 2026-05-06 14:26 | -28.97665 | -50.56803 | 27729 ft | 313 kts | 220° |
| 2026-05-06 14:26 | -28.99398 | -50.58293 | 27115 ft | 316 kts | 220° |
| 2026-05-06 14:27 | -29.01147 | -50.59794 | 26711 ft | 312 kts | 220° |
| 2026-05-06 14:27 | -29.02876 | -50.61273 | 26329 ft | 309 kts | 220° |
| 2026-05-06 14:27 | -29.04631 | -50.62692 | 25854 ft | 314 kts | 215° |
| 2026-05-06 14:27 | -29.06572 | -50.63944 | 25013 ft | 326 kts | 213° |
| 2026-05-06 14:28 | -29.08592 | -50.65166 | 24389 ft | 330 kts | 212° |
| 2026-05-06 14:28 | -29.10639 | -50.66370 | 23836 ft | 331 kts | 211° |
| 2026-05-06 14:28 | -29.12689 | -50.67572 | 23260 ft | 331 kts | 212° |
| 2026-05-06 14:28 | -29.14727 | -50.68773 | 22718 ft | 329 kts | 212° |
| 2026-05-06 14:29 | -29.16750 | -50.69976 | 22180 ft | 327 kts | 212° |
| 2026-05-06 14:29 | -29.18758 | -50.71175 | 21666 ft | 325 kts | 212° |
| 2026-05-06 14:29 | -29.20771 | -50.72385 | 20788 ft | 333 kts | 212° |
| 2026-05-06 14:29 | -29.22862 | -50.73653 | 19742 ft | 347 kts | 212° |
| 2026-05-06 14:30 | -29.25039 | -50.74977 | 18715 ft | 361 kts | 212° |
| 2026-05-06 14:30 | -29.27301 | -50.76352 | 17560 ft | 375 kts | 211° |
| 2026-05-06 14:30 | -29.29643 | -50.77771 | 16342 ft | 387 kts | 211° |
| 2026-05-06 14:30 | -29.32062 | -50.79230 | 15096 ft | 399 kts | 211° |
| 2026-05-06 14:31 | -29.34538 | -50.80719 | 14180 ft | 403 kts | 211° |
| 2026-05-06 14:31 | -29.36974 | -50.82181 | 13976 ft | 386 kts | 211° |
| 2026-05-06 14:31 | -29.39297 | -50.83575 | 13849 ft | 368 kts | 211° |
| 2026-05-06 14:31 | -29.41506 | -50.84901 | 13714 ft | 349 kts | 211° |
| 2026-05-06 14:32 | -29.43598 | -50.86162 | 13594 ft | 331 kts | 211° |
| 2026-05-06 14:32 | -29.45579 | -50.87358 | 13444 ft | 313 kts | 212° |
| 2026-05-06 14:32 | -29.47471 | -50.88500 | 13094 ft | 303 kts | 212° |
| 2026-05-06 14:32 | -29.49323 | -50.89623 | 12613 ft | 299 kts | 212° |
| 2026-05-06 14:33 | -29.51153 | -50.90736 | 12108 ft | 297 kts | 212° |
| 2026-05-06 14:33 | -29.52967 | -50.91844 | 11599 ft | 294 kts | 213° |
| 2026-05-06 14:33 | -29.54769 | -50.92946 | 11265 ft | 293 kts | 212° |
| 2026-05-06 14:33 | -29.56571 | -50.94048 | 11031 ft | 294 kts | 212° |
| 2026-05-06 14:34 | -29.58379 | -50.95148 | 10792 ft | 294 kts | 212° |
| 2026-05-06 14:34 | -29.60189 | -50.96245 | 10552 ft | 294 kts | 212° |
| 2026-05-06 14:34 | -29.61987 | -50.97333 | 10310 ft | 290 kts | 213° |
| 2026-05-06 14:34 | -29.63770 | -50.98412 | 10082 ft | 289 kts | 212° |
| 2026-05-06 14:35 | -29.65546 | -50.99489 | 9922 ft | 289 kts | 213° |
| 2026-05-06 14:35 | -29.67286 | -51.00544 | 9522 ft | 283 kts | 213° |
| 2026-05-06 14:35 | -29.69004 | -51.01588 | 9109 ft | 276 kts | 213° |
| 2026-05-06 14:35 | -29.70676 | -51.02608 | 8717 ft | 270 kts | 213° |
| 2026-05-06 14:36 | -29.72318 | -51.03608 | 8303 ft | 264 kts | 213° |
| 2026-05-06 14:36 | -29.73932 | -51.04590 | 7898 ft | 260 kts | 213° |
| 2026-05-06 14:36 | -29.75521 | -51.05559 | 7499 ft | 258 kts | 213° |
| 2026-05-06 14:36 | -29.77095 | -51.06522 | 7089 ft | 256 kts | 212° |
| 2026-05-06 14:37 | -29.78663 | -51.07481 | 6686 ft | 254 kts | 213° |
| 2026-05-06 14:37 | -29.80220 | -51.08435 | 6242 ft | 253 kts | 212° |
| 2026-05-06 14:37 | -29.81775 | -51.09386 | 5825 ft | 253 kts | 213° |
| 2026-05-06 14:37 | -29.83325 | -51.10333 | 5399 ft | 252 kts | 213° |
| 2026-05-06 14:38 | -29.84874 | -51.11279 | 4971 ft | 252 kts | 212° |
| 2026-05-06 14:38 | -29.86417 | -51.12222 | 4524 ft | 251 kts | 212° |
| 2026-05-06 14:38 | -29.87957 | -51.13163 | 4087 ft | 251 kts | 212° |
| 2026-05-06 14:38 | -29.89500 | -51.14106 | 3655 ft | 251 kts | 212° |
| 2026-05-06 14:39 | -29.91043 | -51.15048 | 3205 ft | 251 kts | 212° |
| 2026-05-06 14:39 | -29.92588 | -51.15992 | 2747 ft | 251 kts | 212° |
| 2026-05-06 14:39 | -29.94111 | -51.16923 | 2512 ft | 240 kts | 212° |
| 2026-05-06 14:39 | -29.95559 | -51.17755 | 2449 ft | 227 kts | 205° |
| 2026-05-06 14:40 | -29.97060 | -51.18180 | 2369 ft | 220 kts | 189° |
| 2026-05-06 14:40 | -29.98559 | -51.18257 | 2263 ft | 211 kts | 186° |
| 2026-05-06 14:40 | -30.00009 | -51.18317 | 2158 ft | 207 kts | 184° |
| 2026-05-06 14:40 | -30.01414 | -51.18042 | 2060 ft | 207 kts | 153° |
| 2026-05-06 14:41 | -30.02470 | -51.16974 | 1806 ft | 202 kts | 117° |
| 2026-05-06 14:41 | -30.02867 | -51.15484 | 1657 ft | 192 kts | 86° |
| 2026-05-06 14:41 | -30.02908 | -51.13945 | 1614 ft | 192 kts | 86° |
| 2026-05-06 14:41 | -30.02950 | -51.12405 | 1596 ft | 193 kts | 86° |
| 2026-05-06 14:42 | -30.02989 | -51.10863 | 1593 ft | 191 kts | 85° |
| 2026-05-06 14:42 | -30.02825 | -51.09432 | 1577 ft | 168 kts | 59° |
| 2026-05-06 14:42 | -30.02088 | -51.08590 | 1476 ft | 141 kts | 14° |
| 2026-05-06 14:42 | -30.01156 | -51.08502 | 1344 ft | 133 kts | 347° |
| 2026-05-06 14:43 | -30.00343 | -51.08958 | 1206 ft | 131 kts | 322° |
| 2026-05-06 14:43 | -29.99797 | -51.09805 | 1052 ft | 134 kts | 298° |
| 2026-05-06 14:43 | -29.99602 | -51.10857 | 806 ft | 136 kts | 278° |
| 2026-05-06 14:43 | -29.99569 | -51.11944 | 577 ft | 136 kts | 274° |
| 2026-05-06 14:44 | -29.99545 | -51.13036 | 387 ft | 136 kts | 274° |
| 2026-05-06 14:44 | -29.99521 | -51.14117 | 217 ft | 134 kts | 274° |
| 2026-05-06 14:44 | -29.99501 | -51.15193 | 47 ft | 134 kts | 273° |
| 2026-05-06 14:45 | -29.99470 | -51.16781 | 20 ft | 59 kts | 271° |
| 2026-05-06 14:45 | -29.99461 | -51.17210 | 20 ft | 47 kts | 271° |
| 2026-05-06 14:45 | -29.99455 | -51.17520 | 20 ft | 33 kts | 271° |
| 2026-05-06 14:45 | -29.99442 | -51.17685 | 21 ft | 10 kts | 305° |
| 2026-05-06 14:46 | -29.99371 | -51.17702 | 22 ft | 10 kts | 1° |
| 2026-05-06 14:46 | -29.99306 | -51.17700 | 20 ft | 10 kts | 1° |
| 2026-05-06 14:46 | -29.99246 | -51.17699 | 20 ft | 8 kts | 0° |
| 2026-05-06 14:46 | -29.99187 | -51.17690 | 20 ft | 8 kts | 32° |
| 2026-05-06 14:47 | -29.99170 | -51.17633 | 20 ft | 7 kts | 85° |
| 2026-05-06 14:47 | -29.99177 | -51.17578 | 22 ft | 7 kts | 98° |
| 2026-05-06 14:47 | -29.99180 | -51.17534 | 20 ft | 2 kts | 88° |
| 2026-05-06 14:47 | -29.99174 | -51.17528 | 22 ft | 1 kts | 37° |
| 2026-05-06 14:48 | -29.99154 | -51.17525 | 20 ft | 4 kts | 2° |
| 2026-05-06 14:48 | -29.99134 | -51.17525 | 20 ft | 1 kts | 359° |
| 2026-05-06 14:48 | -29.99133 | -51.17525 | 20 ft | 0 kts | 359° |